createdAt,value
2022-08-25T00:00:19.377Z,5.43
2022-08-25T00:02:17.424Z,5.73
2022-08-25T00:04:16.343Z,4.77
2022-08-25T00:06:14.030Z,5.34
2022-08-25T00:08:08.749Z,5.16
2022-08-25T00:10:02.946Z,5.32
2022-08-25T00:11:57.905Z,5.58
2022-08-25T00:13:56.048Z,5.17
2022-08-25T00:15:53.214Z,4.89
2022-08-25T00:17:48.206Z,5.87
2022-08-25T00:19:45.410Z,5.14
2022-08-25T00:21:41.496Z,5.21
2022-08-25T00:23:36.857Z,4.56
2022-08-25T00:25:32.859Z,5.46
2022-08-25T00:27:28.012Z,6.18
2022-08-25T00:29:23.040Z,6.39
2022-08-25T00:31:01.002Z,5.82
2022-08-25T00:32:05.230Z,5.96
2022-08-25T00:33:08.605Z,5.42
2022-08-25T00:34:18.277Z,5.33
2022-08-25T00:35:22.584Z,5.03
2022-08-25T00:36:27.738Z,5.21
2022-08-25T00:37:31.030Z,4.93
2022-08-25T00:38:34.290Z,4.93
2022-08-25T00:39:39.379Z,4.93
2022-08-25T00:40:43.474Z,5.48
2022-08-25T00:41:48.023Z,6.76
2022-08-25T00:42:51.221Z,7.19
2022-08-25T00:43:57.770Z,6.87
2022-08-25T00:45:00.962Z,7.49
2022-08-25T00:46:05.126Z,8.91
2022-08-25T00:47:09.544Z,17.56
2022-08-25T00:48:12.936Z,19.95
2022-08-25T00:49:37.990Z,23.65
2022-08-25T00:50:41.692Z,28.24
2022-08-25T00:51:55.689Z,29.08
2022-08-25T00:53:02.631Z,31.16
2022-08-25T00:54:08.339Z,32.26
2022-08-25T00:55:15.157Z,30.12
2022-08-25T00:56:20.821Z,32.12
2022-08-25T00:57:34.326Z,33.54
2022-08-25T00:58:38.622Z,31.91
2022-08-25T00:59:43.852Z,29.90
2022-08-25T01:00:51.716Z,30.10
2022-08-25T01:01:56.794Z,29.79
2022-08-25T01:03:00.409Z,25.93
2022-08-25T01:04:03.881Z,26.31
2022-08-25T01:05:07.797Z,28.21
2022-08-25T01:06:11.602Z,26.10
2022-08-25T01:07:17.899Z,22.91
2022-08-25T01:08:26.668Z,23.39
2022-08-25T01:09:32.634Z,21.83
2022-08-25T01:10:40.833Z,22.94
2022-08-25T01:11:46.609Z,23.81
2022-08-25T01:12:52.197Z,22.17
2022-08-25T01:13:57.074Z,21.90
2022-08-25T01:15:01.786Z,22.28
2022-08-25T01:16:05.641Z,21.72
2022-08-25T01:17:09.401Z,21.30
2022-08-25T01:18:12.930Z,20.46
2022-08-25T01:19:16.601Z,22.61
2022-08-25T01:20:22.614Z,21.82
2022-08-25T01:21:30.728Z,21.90
2022-08-25T01:22:34.117Z,21.81
2022-08-25T01:23:38.112Z,19.92
2022-08-25T01:24:54.088Z,18.88
2022-08-25T01:26:12.775Z,18.78
2022-08-25T01:27:16.651Z,18.95
2022-08-25T01:28:21.109Z,18.65
2022-08-25T01:29:27.237Z,19.53
2022-08-25T01:30:30.874Z,17.72
2022-08-25T01:31:36.145Z,18.04
2022-08-25T01:32:39.669Z,16.05
2022-08-25T01:33:43.183Z,16.06
2022-08-25T01:34:46.541Z,15.11
2022-08-25T01:35:50.122Z,15.45
2022-08-25T01:36:54.845Z,15.87
2022-08-25T01:37:59.011Z,16.83
2022-08-25T01:39:02.800Z,17.44
2022-08-25T01:40:07.099Z,21.62
2022-08-25T01:41:10.535Z,24.36
2022-08-25T01:42:20.771Z,27.48
2022-08-25T01:44:45.735Z,29.83
2022-08-25T01:45:49.031Z,30.29
2022-08-25T01:46:53.043Z,30.23
2022-08-25T01:47:56.458Z,30.96
2022-08-25T01:49:06.216Z,29.92
2022-08-25T01:50:07.525Z,31.05
2022-08-25T01:51:10.911Z,32.78
2022-08-25T01:52:30.012Z,33.59
2022-08-25T01:53:33.809Z,31.77
2022-08-25T01:54:37.240Z,31.46
2022-08-25T01:55:52.732Z,32.57
2022-08-25T01:56:58.721Z,28.48
2022-08-25T01:58:02.029Z,28.56
2022-08-25T01:59:05.434Z,29.18
2022-08-25T02:00:13.456Z,27.39
2022-08-25T02:01:20.311Z,25.12
2022-08-25T02:02:23.740Z,24.62
2022-08-25T02:03:29.085Z,25.51
2022-08-25T02:04:32.994Z,25.32
2022-08-25T02:05:38.642Z,23.63
2022-08-25T02:06:42.090Z,23.85
2022-08-25T02:07:46.329Z,23.86
2022-08-25T02:08:55.642Z,23.19
2022-08-25T02:09:59.006Z,22.61
2022-08-25T02:11:04.894Z,23.00
2022-08-25T02:12:09.129Z,21.14
2022-08-25T02:13:12.844Z,21.81
2022-08-25T02:14:19.349Z,21.94
2022-08-25T02:15:22.759Z,21.33
2022-08-25T02:16:30.273Z,20.62
2022-08-25T02:17:36.133Z,21.96
2022-08-25T02:18:39.460Z,20.43
2022-08-25T02:19:43.072Z,19.94
2022-08-25T02:20:47.200Z,20.92
2022-08-25T02:21:50.662Z,20.82
2022-08-25T02:22:56.881Z,20.57
2022-08-25T02:23:59.940Z,20.19
2022-08-25T02:25:05.810Z,20.24
2022-08-25T02:26:10.094Z,20.46
2022-08-25T02:27:13.489Z,19.75
2022-08-25T02:28:16.698Z,19.52
2022-08-25T02:29:20.125Z,19.21
2022-08-25T02:30:23.707Z,19.78
2022-08-25T02:31:27.385Z,19.42
2022-08-25T02:32:30.731Z,19.05
2022-08-25T02:33:33.978Z,18.84
2022-08-25T02:34:37.146Z,18.48
2022-08-25T02:35:40.497Z,19.82
2022-08-25T02:36:43.858Z,19.49
2022-08-25T02:37:46.981Z,17.81
2022-08-25T02:38:50.536Z,18.11
2022-08-25T02:39:53.932Z,18.87
2022-08-25T02:40:58.192Z,19.11
2022-08-25T02:42:01.539Z,20.68
2022-08-25T02:43:05.326Z,19.08
2022-08-25T02:44:09.183Z,19.08
2022-08-25T02:45:12.443Z,23.66
2022-08-25T02:46:19.457Z,22.10
2022-08-25T02:47:26.879Z,29.82
2022-08-25T02:48:28.380Z,30.30
2022-08-25T02:49:31.667Z,25.88
2022-08-25T02:50:34.926Z,27.85
2022-08-25T02:51:38.380Z,26.74
2022-08-25T02:52:41.720Z,26.96
2022-08-25T02:53:47.927Z,27.72
2022-08-25T02:54:51.264Z,27.04
2022-08-25T02:55:55.108Z,27.49
2022-08-25T02:56:59.067Z,26.94
2022-08-25T02:58:02.345Z,26.99
2022-08-25T02:59:05.750Z,24.72
2022-08-25T03:00:12.674Z,22.96
2022-08-25T03:01:16.565Z,23.86
2022-08-25T03:02:19.802Z,22.89
2022-08-25T03:03:22.891Z,22.79
2022-08-25T03:04:52.988Z,20.91
2022-08-25T03:05:58.152Z,21.61
2022-08-25T03:07:02.770Z,18.99
2022-08-25T03:08:07.125Z,17.94
2022-08-25T03:09:10.725Z,17.96
2022-08-25T03:10:18.415Z,16.74
2022-08-25T03:11:22.094Z,16.96
2022-08-25T03:12:26.714Z,16.10
2022-08-25T03:13:29.948Z,15.92
2022-08-25T03:14:33.113Z,15.10
2022-08-25T03:15:41.180Z,16.51
2022-08-25T03:16:46.478Z,15.75
2022-08-25T03:17:50.582Z,14.94
2022-08-25T03:18:53.850Z,17.73
2022-08-25T03:19:57.874Z,16.46
2022-08-25T03:21:02.774Z,17.66
2022-08-25T03:22:06.193Z,19.28
2022-08-25T03:23:09.327Z,19.82
2022-08-25T03:24:12.425Z,20.23
2022-08-25T03:25:34.689Z,21.10
2022-08-25T03:26:53.951Z,22.32
2022-08-25T03:27:57.673Z,24.37
2022-08-25T03:29:03.259Z,24.61
2022-08-25T03:30:07.337Z,26.07
2022-08-25T03:31:10.599Z,26.49
2022-08-25T03:32:13.795Z,27.19
2022-08-25T03:33:16.973Z,27.09
2022-08-25T03:34:21.447Z,26.74
2022-08-25T03:35:24.673Z,26.14
2022-08-25T03:36:28.486Z,25.84
2022-08-25T03:37:31.478Z,25.90
2022-08-25T03:38:36.954Z,27.76
2022-08-25T03:39:40.159Z,26.91
2022-08-25T03:40:43.373Z,26.30
2022-08-25T03:41:46.996Z,27.13
2022-08-25T03:42:50.297Z,26.55
2022-08-25T03:43:53.793Z,25.14
2022-08-25T03:44:57.036Z,25.89
2022-08-25T03:46:00.255Z,26.24
2022-08-25T03:47:03.454Z,24.51
2022-08-25T03:48:06.520Z,24.16
2022-08-25T03:49:12.648Z,24.87
2022-08-25T03:50:18.326Z,23.52
2022-08-25T03:51:30.378Z,21.66
2022-08-25T03:52:33.521Z,21.82
2022-08-25T03:53:36.664Z,20.52
2022-08-25T03:54:39.759Z,19.74
2022-08-25T03:55:43.006Z,17.81
2022-08-25T03:56:46.635Z,17.17
2022-08-25T03:57:51.024Z,15.43
2022-08-25T03:58:55.049Z,16.43
2022-08-25T03:59:58.231Z,16.38
2022-08-25T04:01:01.424Z,15.08
2022-08-25T04:02:06.104Z,16.71
2022-08-25T04:03:11.346Z,15.47
2022-08-25T04:04:15.626Z,14.34
2022-08-25T04:05:19.685Z,14.50
2022-08-25T04:06:24.189Z,13.59
2022-08-25T04:07:28.540Z,10.53
2022-08-25T04:08:34.959Z,10.91
2022-08-25T04:09:38.341Z,9.78
2022-08-25T04:10:41.443Z,11.10
2022-08-25T04:11:44.504Z,10.21
2022-08-25T04:12:48.802Z,9.94
2022-08-25T04:13:53.605Z,9.56
2022-08-25T04:14:57.560Z,10.06
2022-08-25T04:16:00.876Z,10.81
2022-08-25T04:17:04.283Z,10.38
2022-08-25T04:18:07.656Z,10.43
2022-08-25T04:19:11.657Z,9.89
2022-08-25T04:20:15.055Z,9.58
2022-08-25T04:21:20.265Z,8.28
2022-08-25T04:22:24.508Z,8.53
2022-08-25T04:23:27.604Z,7.17
2022-08-25T04:24:30.734Z,8.79
2022-08-25T04:25:34.231Z,7.92
2022-08-25T04:26:43.812Z,7.60
2022-08-25T04:27:47.045Z,7.70
2022-08-25T04:28:50.269Z,7.90
2022-08-25T04:29:53.404Z,8.04
2022-08-25T04:30:56.686Z,6.82
2022-08-25T04:31:59.870Z,7.09
2022-08-25T04:33:03.148Z,6.61
2022-08-25T04:34:10.170Z,8.10
2022-08-25T04:35:12.207Z,7.32
2022-08-25T04:36:19.002Z,7.94
2022-08-25T04:37:22.093Z,9.09
2022-08-25T04:38:25.542Z,8.30
2022-08-25T04:39:28.976Z,9.05
2022-08-25T04:40:32.820Z,8.59
2022-08-25T04:41:36.074Z,8.26
2022-08-25T04:42:39.474Z,8.65
2022-08-25T04:43:43.818Z,8.57
2022-08-25T04:44:47.198Z,8.59
2022-08-25T04:45:50.357Z,8.36
2022-08-25T04:46:53.583Z,7.33
2022-08-25T04:47:58.541Z,6.62
2022-08-25T04:49:02.149Z,6.56
2022-08-25T04:50:07.084Z,7.01
2022-08-25T04:51:13.266Z,6.09
2022-08-25T04:52:16.460Z,5.71
2022-08-25T04:53:21.167Z,5.11
2022-08-25T04:54:24.457Z,5.69
2022-08-25T04:55:28.246Z,5.79
2022-08-25T04:56:33.200Z,5.03
2022-08-25T04:57:36.951Z,4.18
2022-08-25T04:58:41.170Z,4.26
2022-08-25T04:59:44.436Z,3.66
2022-08-25T05:00:47.723Z,3.79
2022-08-25T05:01:52.274Z,3.46
2022-08-25T05:02:55.641Z,3.48
2022-08-25T05:04:01.055Z,3.27
2022-08-25T05:05:04.691Z,3.33
2022-08-25T05:06:13.976Z,3.02
2022-08-25T05:07:14.739Z,3.02
2022-08-25T05:08:17.830Z,2.87
2022-08-25T05:09:21.814Z,2.83
2022-08-25T05:10:25.652Z,3.28
2022-08-25T05:11:29.874Z,3.01
2022-08-25T05:12:33.748Z,2.59
2022-08-25T05:13:38.083Z,2.97
2022-08-25T05:14:41.382Z,3.00
2022-08-25T05:15:51.047Z,3.37
2022-08-25T05:16:55.462Z,3.23
2022-08-25T05:17:58.624Z,2.86
2022-08-25T05:19:01.762Z,2.69
2022-08-25T05:20:05.446Z,3.12
2022-08-25T05:21:12.307Z,2.69
2022-08-25T05:22:15.690Z,2.92
2022-08-25T05:23:19.245Z,2.84
2022-08-25T05:24:22.390Z,2.81
2022-08-25T05:25:25.562Z,2.71
2022-08-25T05:26:32.782Z,2.50
2022-08-25T05:27:36.210Z,2.83
2022-08-25T05:28:43.260Z,2.34
2022-08-25T05:29:46.876Z,2.88
2022-08-25T05:30:50.646Z,2.38
2022-08-25T05:31:53.919Z,2.77
2022-08-25T05:32:57.264Z,2.88
2022-08-25T05:34:00.702Z,2.55
2022-08-25T05:35:05.877Z,3.14
2022-08-25T05:36:12.224Z,3.33
2022-08-25T05:37:15.972Z,3.09
2022-08-25T05:38:19.698Z,2.86
2022-08-25T05:39:26.860Z,3.37
2022-08-25T05:40:33.335Z,3.01
2022-08-25T05:41:37.518Z,3.64
2022-08-25T05:42:41.897Z,3.00
2022-08-25T05:43:48.282Z,2.98
2022-08-25T05:44:52.970Z,3.17
2022-08-25T05:45:58.064Z,3.14
2022-08-25T05:47:01.390Z,2.34
2022-08-25T05:48:04.747Z,2.34
2022-08-25T05:49:07.886Z,2.24
2022-08-25T05:50:11.305Z,1.82
2022-08-25T05:51:15.562Z,2.32
2022-08-25T05:52:20.306Z,2.26
2022-08-25T05:53:24.725Z,2.40
2022-08-25T05:54:27.972Z,2.05
2022-08-25T05:55:31.032Z,2.21
2022-08-25T05:56:34.235Z,2.17
2022-08-25T05:57:37.391Z,2.31
2022-08-25T05:58:42.291Z,2.30
2022-08-25T05:59:45.529Z,2.03
2022-08-25T06:00:49.235Z,1.74
2022-08-25T06:02:10.791Z,1.97
2022-08-25T06:03:15.781Z,2.25
2022-08-25T06:04:19.798Z,2.41
2022-08-25T06:05:24.310Z,2.01
2022-08-25T06:06:28.549Z,1.97
2022-08-25T06:07:32.768Z,2.00
2022-08-25T06:08:35.870Z,2.30
2022-08-25T06:09:40.256Z,1.95
2022-08-25T06:10:43.476Z,2.41
2022-08-25T06:11:51.645Z,2.12
2022-08-25T06:12:53.535Z,2.30
2022-08-25T06:13:58.601Z,2.22
2022-08-25T06:15:02.708Z,1.90
2022-08-25T06:16:07.786Z,1.69
2022-08-25T06:17:10.939Z,2.50
2022-08-25T06:18:14.428Z,2.06
2022-08-25T06:19:18.109Z,2.24
2022-08-25T06:20:25.375Z,2.51
2022-08-25T06:21:29.190Z,2.23
2022-08-25T06:22:32.467Z,1.97
2022-08-25T06:23:37.070Z,1.98
2022-08-25T06:24:40.315Z,1.58
2022-08-25T06:25:51.998Z,1.81
2022-08-25T06:26:55.824Z,1.92
2022-08-25T06:27:59.092Z,2.01
2022-08-25T06:29:03.291Z,2.86
2022-08-25T06:30:09.974Z,1.73
2022-08-25T06:31:14.634Z,4.20
2022-08-25T06:32:17.839Z,1.87
2022-08-25T06:33:21.011Z,2.11
2022-08-25T06:34:24.451Z,2.26
2022-08-25T06:35:27.677Z,2.06
2022-08-25T06:36:30.917Z,2.07
2022-08-25T06:37:34.161Z,1.89
2022-08-25T06:38:37.249Z,2.00
2022-08-25T06:39:40.366Z,2.39
2022-08-25T06:40:47.132Z,2.18
2022-08-25T06:41:54.675Z,2.29
2022-08-25T06:42:59.661Z,2.27
2022-08-25T06:44:05.279Z,2.08
2022-08-25T06:45:09.647Z,1.92
2022-08-25T06:46:16.227Z,2.05
2022-08-25T06:47:19.663Z,2.07
2022-08-25T06:48:23.428Z,2.30
2022-08-25T06:49:30.087Z,2.17
2022-08-25T06:50:33.716Z,2.07
2022-08-25T06:51:36.826Z,2.29
2022-08-25T06:52:39.967Z,1.96
2022-08-25T06:53:44.855Z,2.44
2022-08-25T06:54:49.149Z,3.32
2022-08-25T06:55:57.358Z,3.59
2022-08-25T06:57:00.774Z,2.58
2022-08-25T06:58:05.337Z,3.36
2022-08-25T06:59:09.955Z,3.21
2022-08-25T07:00:13.671Z,3.49
2022-08-25T07:01:22.793Z,2.62
2022-08-25T07:02:27.853Z,2.76
2022-08-25T07:03:32.587Z,3.46
2022-08-25T07:04:36.186Z,3.19
2022-08-25T07:05:43.785Z,2.71
2022-08-25T07:06:44.398Z,3.04
2022-08-25T07:07:47.634Z,2.88
2022-08-25T07:08:50.781Z,3.05
2022-08-25T07:09:53.958Z,2.69
2022-08-25T07:10:58.444Z,2.26
2022-08-25T07:12:04.191Z,2.26
2022-08-25T07:13:07.327Z,2.19
2022-08-25T07:14:11.895Z,1.92
2022-08-25T07:15:20.386Z,2.22
2022-08-25T07:16:21.857Z,1.71
2022-08-25T07:17:26.617Z,1.71
2022-08-25T07:18:29.730Z,1.77
2022-08-25T07:19:32.969Z,1.69
2022-08-25T07:20:36.512Z,2.28
2022-08-25T07:21:41.883Z,1.76
2022-08-25T07:22:45.297Z,1.60
2022-08-25T07:23:48.384Z,1.79
2022-08-25T07:24:51.479Z,1.73
2022-08-25T07:25:55.080Z,1.66
2022-08-25T07:26:58.699Z,1.42
2022-08-25T07:28:02.477Z,1.87
2022-08-25T07:29:12.164Z,1.75
2022-08-25T07:30:18.314Z,1.89
2022-08-25T07:31:21.737Z,1.43
2022-08-25T07:32:26.712Z,1.79
2022-08-25T07:33:30.005Z,1.84
2022-08-25T07:34:52.809Z,1.47
2022-08-25T07:35:57.034Z,1.43
2022-08-25T07:37:02.761Z,1.65
2022-08-25T07:38:09.179Z,1.68
2022-08-25T07:39:12.879Z,1.46
2022-08-25T07:40:21.745Z,1.60
2022-08-25T07:41:25.871Z,1.68
2022-08-25T07:42:29.482Z,1.41
2022-08-25T07:43:32.552Z,1.40
2022-08-25T07:44:35.547Z,1.45
2022-08-25T07:45:46.911Z,1.35
2022-08-25T07:46:45.215Z,1.48
2022-08-25T07:47:49.058Z,2.54
2022-08-25T07:48:54.010Z,1.76
2022-08-25T07:49:57.657Z,2.54
2022-08-25T07:51:05.601Z,2.13
2022-08-25T07:52:09.495Z,2.73
2022-08-25T07:53:14.965Z,2.46
2022-08-25T07:54:18.524Z,2.90
2022-08-25T07:55:27.141Z,2.66
2022-08-25T07:56:31.394Z,2.81
2022-08-25T07:57:34.502Z,2.65
2022-08-25T07:58:38.385Z,2.81
2022-08-25T07:59:43.398Z,2.47
2022-08-25T08:00:48.282Z,2.55
2022-08-25T08:01:53.452Z,2.59
2022-08-25T08:02:57.543Z,2.92
2022-08-25T08:04:03.537Z,3.21
2022-08-25T08:05:08.983Z,2.74
2022-08-25T08:06:16.093Z,2.37
2022-08-25T08:07:21.232Z,2.12
2022-08-25T08:08:26.747Z,2.55
2022-08-25T08:09:31.979Z,2.98
2022-08-25T08:11:04.384Z,2.43
2022-08-25T08:11:53.951Z,2.49
2022-08-25T08:12:49.607Z,3.03
2022-08-25T08:13:56.522Z,2.27
2022-08-25T08:14:59.944Z,2.79
2022-08-25T08:16:04.988Z,2.87
2022-08-25T08:17:09.946Z,2.39
2022-08-25T08:18:13.155Z,2.39
2022-08-25T08:19:17.365Z,2.29
2022-08-25T08:20:24.079Z,1.97
2022-08-25T08:21:30.658Z,1.72
2022-08-25T08:22:34.001Z,1.89
2022-08-25T08:23:37.123Z,2.02
2022-08-25T08:24:44.881Z,1.82
2022-08-25T08:25:45.410Z,1.54
2022-08-25T08:26:58.655Z,1.29
2022-08-25T08:27:56.243Z,2.32
2022-08-25T08:29:00.039Z,1.81
2022-08-25T08:30:06.067Z,1.82
2022-08-25T08:31:10.613Z,1.89
2022-08-25T08:32:14.106Z,1.66
2022-08-25T08:33:18.107Z,1.39
2022-08-25T08:34:24.859Z,1.31
2022-08-25T08:35:28.091Z,1.94
2022-08-25T08:36:31.270Z,1.77
2022-08-25T08:37:34.451Z,1.67
2022-08-25T08:38:40.440Z,2.08
2022-08-25T08:39:44.157Z,1.85
2022-08-25T08:41:54.321Z,1.86
2022-08-25T08:43:18.172Z,1.55
2022-08-25T08:44:34.968Z,1.49
2022-08-25T08:45:50.514Z,1.37
2022-08-25T08:47:00.188Z,1.24
2022-08-25T08:48:21.670Z,1.66
2022-08-25T08:49:37.416Z,1.51
2022-08-25T08:50:59.052Z,1.52
2022-08-25T08:52:04.018Z,1.40
2022-08-25T08:53:10.825Z,1.51
2022-08-25T08:54:20.388Z,1.30
2022-08-25T08:55:29.937Z,1.26
2022-08-25T08:56:36.661Z,1.26
2022-08-25T08:57:43.142Z,1.47
2022-08-25T08:59:00.590Z,1.75
2022-08-25T09:00:06.426Z,1.46
2022-08-25T09:01:13.131Z,1.58
2022-08-25T09:02:30.808Z,1.43
2022-08-25T09:03:42.088Z,1.56
2022-08-25T09:46:39.112Z,1.21
2022-08-25T09:47:44.485Z,1.11
2022-08-25T09:48:56.045Z,1.22
2022-08-25T09:50:01.128Z,1.34
2022-08-25T09:51:22.806Z,1.37
2022-08-25T09:52:32.385Z,1.68
2022-08-25T09:53:36.785Z,1.94
2022-08-25T09:54:44.173Z,1.63
2022-08-25T09:55:49.228Z,2.01
2022-08-25T09:56:57.870Z,1.47
2022-08-25T09:58:09.493Z,1.34
2022-08-25T10:00:33.210Z,1.57
2022-08-25T10:01:39.935Z,1.35
2022-08-25T10:02:46.152Z,1.10
2022-08-25T10:03:59.554Z,1.18
2022-08-25T10:05:09.271Z,1.40
2022-08-25T10:06:15.488Z,1.49
2022-08-25T10:07:31.657Z,1.69
2022-08-25T10:08:47.227Z,1.71
2022-08-25T10:10:00.007Z,1.29
2022-08-25T10:11:08.859Z,1.62
2022-08-25T10:12:23.483Z,1.33
2022-08-25T10:13:41.041Z,1.34
2022-08-25T10:14:44.332Z,1.41
2022-08-25T10:15:47.993Z,0.95
2022-08-25T10:16:52.875Z,0.99
2022-08-25T10:17:56.416Z,1.20
2022-08-25T10:19:07.406Z,1.06
2022-08-25T10:20:21.521Z,1.28
2022-08-25T10:21:24.719Z,1.36
2022-08-25T10:22:29.585Z,1.45
2022-08-25T10:23:36.341Z,0.94
2022-08-25T10:24:41.004Z,1.16
2022-08-25T10:25:59.306Z,1.31
2022-08-25T10:27:05.491Z,0.79
2022-08-25T10:28:23.936Z,0.98
2022-08-25T10:29:36.812Z,1.05
2022-08-25T10:31:05.338Z,0.90
2022-08-25T10:32:13.833Z,1.04
2022-08-25T10:33:31.101Z,1.04
2022-08-25T10:34:55.748Z,1.12
2022-08-25T10:36:21.317Z,0.91
2022-08-25T10:37:44.575Z,1.06
2022-08-25T10:39:01.626Z,1.25
2022-08-25T10:40:26.551Z,1.09
2022-08-25T10:41:33.439Z,1.40
2022-08-25T10:42:56.430Z,1.51
2022-08-25T10:44:57.768Z,1.39
2022-08-25T10:46:04.474Z,1.22
2022-08-25T10:47:32.258Z,1.34
2022-08-25T10:48:46.927Z,1.43
2022-08-25T10:50:04.948Z,1.47
2022-08-25T10:51:28.247Z,1.24
2022-08-25T10:52:40.803Z,1.29
2022-08-25T10:53:56.155Z,1.41
2022-08-25T10:55:15.238Z,1.39
2022-08-25T10:56:26.397Z,1.37
2022-08-25T10:57:47.809Z,1.28
2022-08-25T10:59:27.884Z,1.38
2022-08-25T11:00:36.985Z,1.14
2022-08-25T11:02:17.042Z,1.49
2022-08-25T11:03:40.444Z,1.62
2022-08-25T11:04:50.548Z,1.37
2022-08-25T11:06:02.747Z,2.04
2022-08-25T11:07:19.033Z,2.07
2022-08-25T11:08:39.833Z,1.53
2022-08-25T11:09:47.256Z,1.98
2022-08-25T11:11:01.810Z,1.48
2022-08-25T11:12:23.821Z,1.61
2022-08-25T11:14:50.627Z,1.49
2022-08-25T11:16:16.509Z,1.40
2022-08-25T11:17:18.924Z,1.34
2022-08-25T11:18:24.181Z,1.49
2022-08-25T11:19:43.988Z,1.49
2022-08-25T11:22:16.552Z,1.56
2022-08-25T11:23:25.053Z,1.63
2022-08-25T11:24:50.401Z,1.88
2022-08-25T11:26:00.533Z,1.66
2022-08-25T11:27:07.235Z,1.58
2022-08-25T11:28:20.023Z,1.64
2022-08-25T11:29:36.189Z,1.57
2022-08-25T11:30:41.060Z,1.80
2022-08-25T11:31:52.744Z,2.12
2022-08-25T11:32:54.342Z,1.87
2022-08-25T11:33:58.415Z,2.51
2022-08-25T11:35:12.186Z,3.83
2022-08-25T11:36:35.281Z,2.50
2022-08-25T11:37:59.887Z,2.27
2022-08-25T11:39:23.132Z,2.26
2022-08-25T11:40:38.230Z,2.71
2022-08-25T11:42:00.105Z,2.43
2022-08-25T11:43:26.086Z,2.31
2022-08-25T11:44:34.050Z,2.10
2022-08-25T11:45:58.478Z,2.12
2022-08-25T11:47:21.198Z,2.07
2022-08-25T11:50:58.667Z,1.68
2022-08-25T11:52:06.993Z,1.67
2022-08-25T11:53:26.609Z,2.05
2022-08-25T11:54:38.648Z,2.18
2022-08-25T11:55:58.033Z,2.02
2022-08-25T11:57:07.930Z,1.77
2022-08-25T11:58:30.681Z,2.23
2022-08-25T11:59:56.036Z,1.94
2022-08-25T12:01:03.051Z,2.06
2022-08-25T12:02:16.558Z,1.74
2022-08-25T12:03:47.065Z,1.57
2022-08-25T12:04:55.271Z,1.68
2022-08-25T12:06:22.739Z,1.82
2022-08-25T12:07:37.111Z,1.62
2022-08-25T12:09:04.337Z,2.01
2022-08-25T12:10:31.565Z,1.73
2022-08-25T12:11:49.706Z,1.64
2022-08-25T12:13:02.483Z,2.08
2022-08-25T12:14:25.037Z,1.56
2022-08-25T12:15:46.055Z,1.77
2022-08-25T12:17:01.507Z,1.70
2022-08-25T12:18:22.606Z,1.21
2022-08-25T12:19:29.164Z,1.51
2022-08-25T12:20:56.070Z,1.42
2022-08-25T12:22:03.122Z,1.42
2022-08-25T12:23:07.866Z,1.47
2022-08-25T12:24:13.556Z,1.41
2022-08-25T12:25:35.766Z,1.20
2022-08-25T12:26:49.228Z,1.41
2022-08-25T12:28:09.245Z,1.28
2022-08-25T12:29:21.428Z,1.11
2022-08-25T12:30:32.357Z,1.06
2022-08-25T12:31:43.484Z,1.28
2022-08-25T12:33:11.357Z,1.07
2022-08-25T12:34:41.484Z,1.03
2022-08-25T12:35:57.282Z,1.16
2022-08-25T12:37:06.110Z,1.44
2022-08-25T12:38:19.313Z,1.29
2022-08-25T12:39:25.613Z,1.19
2022-08-25T12:40:35.579Z,1.32
2022-08-25T12:41:42.486Z,1.44
2022-08-25T12:42:45.697Z,1.59
2022-08-25T12:43:51.770Z,1.27
2022-08-25T12:45:16.304Z,1.38
2022-08-25T12:46:27.033Z,1.31
2022-08-25T12:47:33.633Z,1.41
2022-08-25T12:48:40.303Z,1.17
2022-08-25T12:49:46.191Z,1.39
2022-08-25T12:50:58.631Z,1.26
2022-08-25T12:52:20.230Z,1.28
2022-08-25T12:53:42.061Z,1.49
2022-08-25T12:54:51.750Z,2.32
2022-08-25T12:55:58.507Z,1.66
2022-08-25T12:57:34.181Z,1.28
2022-08-25T12:59:00.371Z,1.22
2022-08-25T13:00:13.661Z,1.94
2022-08-25T13:01:49.250Z,1.58
2022-08-25T13:03:22.821Z,2.01
2022-08-25T13:04:35.902Z,1.75
2022-08-25T13:06:08.317Z,1.34
2022-08-25T13:07:14.980Z,1.39
2022-08-25T13:08:33.615Z,1.44
2022-08-25T13:09:48.475Z,1.44
2022-08-25T13:11:04.967Z,1.46
2022-08-25T13:12:28.698Z,1.57
2022-08-25T13:13:38.612Z,1.72
2022-08-25T13:14:44.054Z,2.01
2022-08-25T13:15:59.543Z,1.83
2022-08-25T13:17:03.211Z,2.19
2022-08-25T13:18:19.814Z,1.92
2022-08-25T13:19:23.730Z,1.90
2022-08-25T13:20:30.492Z,1.65
2022-08-25T13:21:42.871Z,2.73
2022-08-25T13:22:57.228Z,1.64
2022-08-25T13:24:01.332Z,3.96
2022-08-25T13:25:05.152Z,2.32
2022-08-25T13:26:12.499Z,1.72
2022-08-25T13:27:28.302Z,1.52
2022-08-25T13:28:35.696Z,1.68
2022-08-25T13:29:57.476Z,1.37
2022-08-25T13:31:10.364Z,1.47
2022-08-25T13:32:16.130Z,2.09
2022-08-25T13:33:25.099Z,1.62
2022-08-25T13:34:34.931Z,1.61
2022-08-25T13:35:36.794Z,1.64
2022-08-25T13:37:04.274Z,1.54
2022-08-25T13:38:18.896Z,1.66
2022-08-25T13:39:45.480Z,1.68
2022-08-25T13:40:32.252Z,1.91
2022-08-25T13:41:35.401Z,1.95
2022-08-25T13:42:44.283Z,2.28
2022-08-25T13:43:47.734Z,2.47
2022-08-25T13:44:51.976Z,2.11
2022-08-25T13:45:56.192Z,1.63
2022-08-25T13:47:12.468Z,1.49
2022-08-25T13:48:22.555Z,1.75
2022-08-25T13:49:27.309Z,1.66
2022-08-25T13:50:36.439Z,1.93
2022-08-25T13:51:43.688Z,1.90
2022-08-25T13:52:50.395Z,1.77
2022-08-25T13:53:56.825Z,1.96
2022-08-25T13:55:01.925Z,1.68
2022-08-25T13:56:07.644Z,1.59
2022-08-25T13:57:23.238Z,1.71
2022-08-25T13:58:39.686Z,1.89
2022-08-25T13:59:40.238Z,1.81
2022-08-25T14:00:49.867Z,1.83
2022-08-25T14:01:55.916Z,1.93
2022-08-25T14:03:01.228Z,1.84
2022-08-25T14:04:31.033Z,2.01
2022-08-25T14:05:44.991Z,1.88
2022-08-25T14:06:48.711Z,1.74
2022-08-25T14:08:09.223Z,2.08
2022-08-25T14:09:05.296Z,2.02
2022-08-25T14:10:12.969Z,1.72
2022-08-25T14:11:34.446Z,1.96
2022-08-25T14:12:45.240Z,2.54
2022-08-25T14:13:51.924Z,1.86
2022-08-25T14:15:01.681Z,1.94
2022-08-25T14:16:23.209Z,1.68
2022-08-25T14:17:39.683Z,1.89
2022-08-25T14:18:33.594Z,1.88
2022-08-25T14:19:40.228Z,2.01
2022-08-25T14:20:46.876Z,2.38
2022-08-25T14:21:52.881Z,1.73
2022-08-25T14:23:01.817Z,1.70
2022-08-25T14:24:05.919Z,1.83
2022-08-25T14:25:09.338Z,1.84
2022-08-25T14:26:14.789Z,1.92
2022-08-25T14:27:18.614Z,1.62
2022-08-25T14:28:25.812Z,1.82
2022-08-25T14:29:29.453Z,1.65
2022-08-25T14:30:39.039Z,1.89
2022-08-25T14:31:45.418Z,1.42
2022-08-25T14:32:48.627Z,1.39
2022-08-25T14:34:03.175Z,2.04
2022-08-25T14:35:09.799Z,1.57
2022-08-25T14:36:13.241Z,1.19
2022-08-25T14:37:20.373Z,1.48
2022-08-25T14:38:25.657Z,1.41
2022-08-25T14:39:28.750Z,1.66
2022-08-25T14:40:34.373Z,1.36
2022-08-25T14:41:40.443Z,1.22
2022-08-25T14:42:44.507Z,1.27
2022-08-25T14:43:47.787Z,1.42
2022-08-25T14:44:52.406Z,1.30
2022-08-25T14:45:56.576Z,1.24
2022-08-25T14:47:02.523Z,1.48
2022-08-25T14:48:10.888Z,0.99
2022-08-25T14:49:17.625Z,1.64
2022-08-25T14:50:23.509Z,1.14
2022-08-25T14:51:29.709Z,1.21
2022-08-25T14:52:33.146Z,1.14
2022-08-25T14:53:36.972Z,1.44
2022-08-25T14:54:40.406Z,1.30
2022-08-25T14:55:43.611Z,1.20
2022-08-25T14:56:50.256Z,1.54
2022-08-25T14:57:53.299Z,1.52
2022-08-25T14:58:56.811Z,1.57
2022-08-25T15:00:03.448Z,1.49
2022-08-25T15:01:07.665Z,1.45
2022-08-25T15:02:15.814Z,1.22
2022-08-25T15:03:33.256Z,1.75
2022-08-25T15:04:37.464Z,1.59
2022-08-25T15:05:41.383Z,1.97
2022-08-25T15:06:48.001Z,1.81
2022-08-25T15:08:12.256Z,1.36
2022-08-25T15:09:17.519Z,1.99
2022-08-25T15:10:23.833Z,1.25
2022-08-25T15:11:28.748Z,1.15
2022-08-25T15:12:46.824Z,1.37
2022-08-25T15:13:37.213Z,1.28
2022-08-25T15:14:40.311Z,1.23
2022-08-25T15:15:52.678Z,1.50
2022-08-25T15:16:56.326Z,1.14
2022-08-25T15:18:01.270Z,1.66
2022-08-25T15:19:07.871Z,1.50
2022-08-25T15:20:11.923Z,1.44
2022-08-25T15:21:15.148Z,1.57
2022-08-25T15:22:18.704Z,1.56
2022-08-25T15:23:21.916Z,1.82
2022-08-25T15:24:25.750Z,1.22
2022-08-25T15:25:29.026Z,1.28
2022-08-25T15:26:41.563Z,1.41
2022-08-25T15:27:44.903Z,1.48
2022-08-25T15:28:49.893Z,1.50
2022-08-25T15:29:53.330Z,1.36
2022-08-25T15:30:57.370Z,1.10
2022-08-25T15:32:01.787Z,1.39
2022-08-25T15:33:04.824Z,1.69
2022-08-25T15:34:11.636Z,1.77
2022-08-25T15:35:15.356Z,1.93
2022-08-25T15:36:22.290Z,1.61
2022-08-25T15:37:27.347Z,1.87
2022-08-25T15:38:30.638Z,1.51
2022-08-25T15:39:34.019Z,1.26
2022-08-25T15:40:38.905Z,2.04
2022-08-25T15:41:42.746Z,1.82
2022-08-25T15:42:46.344Z,1.67
2022-08-25T15:43:49.587Z,1.44
2022-08-25T15:44:55.444Z,1.72
2022-08-25T15:45:58.978Z,1.58
2022-08-25T15:47:02.244Z,1.77
2022-08-25T15:48:06.747Z,1.86
2022-08-25T15:49:10.519Z,1.77
2022-08-25T15:50:21.081Z,1.61
2022-08-25T15:51:24.113Z,1.54
2022-08-25T15:52:31.114Z,1.61
2022-08-25T15:53:34.534Z,2.27
2022-08-25T15:54:38.286Z,2.15
2022-08-25T15:55:41.873Z,1.23